Time;durP1;ratioP1;P1;durP2;ratioP2;P2;SDS_P1;SDS_P2;PMS_P1;PMS_P2;Temp;Humidity;BMP_temperature;BMP_pressure;BME280_temperature;BME280_humidity;BME280_pressure;Samples;Min_cycle;Max_cycle;Signal;HPM_P1;HPM_P2
2021/06/05 00:02:45;;;;;;;9.17;7.20;;;21.70;81.00;;;;;;6249268;28;20242;-61
2021/06/05 00:05:52;;;;;;;8.37;7.60;;;21.70;81.10;;;;;;6248837;28;20243;-60
2021/06/05 00:09:08;;;;;;;7.73;7.03;;;21.70;81.60;;;;;;6247041;28;20690;-59
2021/06/05 00:12:15;;;;;;;8.63;7.87;;;21.70;82.00;;;;;;6248983;28;20219;-60
2021/06/05 00:15:23;;;;;;;7.60;7.10;;;21.70;82.40;;;;;;6249117;28;20240;-59
2021/06/05 00:18:29;;;;;;;7.80;7.20;;;21.60;82.70;;;;;;6248560;28;20311;-59
2021/06/05 00:21:34;;;;;;;8.87;7.97;;;21.60;83.30;;;;;;6248766;28;20239;-59
2021/06/05 00:24:39;;;;;;;7.53;6.93;;;21.50;83.70;;;;;;6248809;28;20236;-60
2021/06/05 00:27:41;;;;;;;7.40;6.90;;;21.50;84.10;;;;;;6248810;28;20690;-59
2021/06/05 00:30:44;;;;;;;7.60;7.00;;;21.40;84.60;;;;;;6244247;28;20227;-59
2021/06/05 00:34:01;;;;;;;8.00;7.20;;;21.40;85.00;;;;;;6245317;28;20239;-59
2021/06/05 00:37:05;;;;;;;11.40;7.93;;;21.30;85.30;;;;;;6249139;28;20224;-59
2021/06/05 00:40:12;;;;;;;8.50;7.80;;;21.20;85.80;;;;;;6248991;28;20232;-59
2021/06/05 00:43:17;;;;;;;8.90;8.00;;;21.20;86.50;;;;;;6248699;28;20235;-60
2021/06/05 00:46:46;;;;;;;8.23;7.53;;;21.10;86.50;;;;;;6226116;28;20232;-59
2021/06/05 00:49:49;;;;;;;9.07;8.20;;;21.00;87.20;;;;;;6248249;28;20609;-59
2021/06/05 00:52:55;;;;;;;9.30;8.50;;;21.00;87.80;;;;;;6239005;28;20228;-59
2021/06/05 00:56:26;;;;;;;9.00;8.30;;;20.90;88.40;;;;;;6225945;28;20694;-60
2021/06/05 00:59:33;;;;;;;8.93;8.17;;;20.90;88.80;;;;;;6228061;28;20799;-59
2021/06/05 01:02:35;;;;;;;10.13;9.17;;;20.80;90.00;;;;;;6227183;28;20244;-61
2021/06/05 01:06:17;;;;;;;9.47;8.73;;;20.70;89.50;;;;;;6205128;28;20233;-59
2021/06/05 01:09:26;;;;;;;8.67;7.97;;;20.70;89.70;;;;;;6228285;28;20233;-59
2021/06/05 01:12:34;;;;;;;8.80;8.00;;;20.60;89.80;;;;;;6227975;28;20236;-59
2021/06/05 01:15:40;;;;;;;9.23;8.43;;;20.50;90.00;;;;;;6228307;28;20241;-59
2021/06/05 01:18:52;;;;;;;8.63;7.87;;;20.50;90.40;;;;;;6227571;28;20295;-59
2021/06/05 01:22:18;;;;;;;8.50;7.90;;;20.40;90.60;;;;;;6227600;28;20240;-59
2021/06/05 01:25:32;;;;;;;9.30;8.50;;;20.40;90.80;;;;;;6227295;28;20237;-59
2021/06/05 01:28:41;;;;;;;9.37;8.40;;;20.40;91.00;;;;;;6227087;28;20233;-59
2021/06/05 01:31:49;;;;;;;9.83;8.93;;;20.30;91.20;;;;;;6227178;28;20251;-59
2021/06/05 01:34:55;;;;;;;10.33;9.47;;;20.20;91.50;;;;;;6227274;28;20572;-59
2021/06/05 01:37:58;;;;;;;9.97;9.20;;;20.20;91.80;;;;;;6223081;28;20232;-59
2021/06/05 01:41:02;;;;;;;9.90;8.90;;;20.10;92.00;;;;;;6227625;28;20263;-59
2021/06/05 01:44:07;;;;;;;9.57;8.47;;;20.10;92.40;;;;;;6227118;28;20307;-59
2021/06/05 01:47:11;;;;;;;9.93;9.13;;;20.00;92.50;;;;;;6227241;28;20229;-59
2021/06/05 01:50:16;;;;;;;8.67;7.90;;;20.00;92.70;;;;;;6227058;28;20232;-59
2021/06/05 01:53:23;;;;;;;10.23;9.33;;;19.90;92.80;;;;;;6226606;28;20686;-59
2021/06/05 01:56:31;;;;;;;9.53;8.83;;;19.90;93.00;;;;;;6227002;28;20248;-59
2021/06/05 01:59:35;;;;;;;8.60;7.90;;;19.90;93.20;;;;;;6226714;28;20271;-59
2021/06/05 02:02:38;;;;;;;9.17;8.47;;;19.80;93.30;;;;;;6227160;28;20233;-60
2021/06/05 02:05:42;;;;;;;9.13;8.47;;;19.80;93.30;;;;;;6226733;28;20236;-60
2021/06/05 02:08:45;;;;;;;9.73;9.00;;;19.70;93.50;;;;;;6227136;28;20220;-60
2021/06/05 02:11:51;;;;;;;9.27;8.30;;;19.70;93.90;;;;;;6227083;28;20212;-60
2021/06/05 02:15:01;;;;;;;9.43;8.63;;;19.70;94.00;;;;;;6226657;28;20587;-61
2021/06/05 02:18:09;;;;;;;8.37;7.77;;;19.60;94.20;;;;;;6226840;28;20233;-60
2021/06/05 02:21:15;;;;;;;9.90;8.93;;;19.70;94.50;;;;;;6226520;28;20243;-60
2021/06/05 02:24:21;;;;;;;9.67;8.87;;;19.60;94.50;;;;;;6226655;28;20674;-60
2021/06/05 02:27:27;;;;;;;10.00;8.90;;;19.50;94.60;;;;;;6226922;28;20228;-60
2021/06/05 02:30:32;;;;;;;10.30;9.40;;;19.50;94.70;;;;;;6226539;28;20240;-61
2021/06/05 02:33:36;;;;;;;9.87;9.07;;;19.50;94.90;;;;;;6226630;28;20366;-59
2021/06/05 02:36:41;;;;;;;10.10;9.20;;;19.40;95.10;;;;;;6225850;28;20679;-60
2021/06/05 02:39:44;;;;;;;10.23;9.27;;;19.40;95.20;;;;;;6226261;28;20301;-60
2021/06/05 02:42:48;;;;;;;9.43;8.70;;;19.40;95.30;;;;;;6226226;28;20232;-59
2021/06/05 02:45:56;;;;;;;10.80;9.93;;;19.40;95.30;;;;;;6226141;28;20693;-60
2021/06/05 02:49:01;;;;;;;10.17;9.30;;;19.40;95.70;;;;;;6226005;28;20229;-60
2021/06/05 02:52:07;;;;;;;10.60;9.80;;;19.30;95.60;;;;;;6225859;28;20712;-60
2021/06/05 02:55:13;;;;;;;9.73;8.83;;;19.30;95.80;;;;;;6225998;28;20244;-60
2021/06/05 02:58:16;;;;;;;10.07;9.17;;;19.30;95.80;;;;;;6225824;28;20251;-59
2021/06/05 03:01:20;;;;;;;9.33;8.63;;;19.30;95.80;;;;;;6225531;28;20236;-59
2021/06/05 03:04:24;;;;;;;10.27;9.37;;;19.30;95.90;;;;;;6225188;28;20244;-59
2021/06/05 03:07:27;;;;;;;10.10;9.30;;;19.30;96.10;;;;;;6225551;28;20232;-59
2021/06/05 03:10:31;;;;;;;9.80;8.80;;;19.30;96.10;;;;;;6225392;28;20248;-60
2021/06/05 03:13:34;;;;;;;10.40;9.60;;;19.30;96.20;;;;;;6225425;28;20247;-59
2021/06/05 03:16:39;;;;;;;10.43;9.63;;;19.40;96.10;;;;;;6225602;28;20233;-59
2021/06/05 03:19:42;;;;;;;9.80;9.10;;;19.50;96.10;;;;;;6225177;28;20233;-59
2021/06/05 03:22:45;;;;;;;9.50;8.90;;;19.50;96.00;;;;;;6225266;28;20690;-59
2021/06/05 03:25:48;;;;;;;10.23;9.43;;;19.50;95.90;;;;;;6225364;28;20683;-59
2021/06/05 03:28:51;;;;;;;9.80;9.00;;;19.40;96.00;;;;;;6225136;28;20247;-59
2021/06/05 03:31:56;;;;;;;9.93;9.13;;;19.40;96.00;;;;;;6225216;28;20232;-59
2021/06/05 03:34:58;;;;;;;10.50;9.10;;;19.40;96.00;;;;;;6225035;28;20229;-59
2021/06/05 03:38:02;;;;;;;9.73;8.73;;;19.40;95.90;;;;;;6224933;28;20243;-59
2021/06/05 03:41:05;;;;;;;10.53;9.57;;;19.40;95.90;;;;;;6224932;28;20319;-59
2021/06/05 03:44:08;;;;;;;9.70;8.90;;;19.40;96.00;;;;;;6224961;28;20721;-59
2021/06/05 03:47:12;;;;;;;10.30;9.40;;;19.40;96.00;;;;;;6224673;28;20233;-59
2021/06/05 03:50:17;;;;;;;10.83;9.90;;;19.50;96.10;;;;;;6224691;28;20278;-59
2021/06/05 03:53:22;;;;;;;11.10;9.33;;;19.40;96.00;;;;;;6224842;28;20564;-59
2021/06/05 03:56:24;;;;;;;9.67;8.80;;;19.40;96.30;;;;;;6224712;28;20577;-59
2021/06/05 03:59:27;;;;;;;9.87;9.17;;;19.40;96.40;;;;;;6224553;28;20241;-59
2021/06/05 04:02:31;;;;;;;9.83;9.13;;;19.50;96.60;;;;;;6224642;28;20335;-59
2021/06/05 04:05:36;;;;;;;10.40;9.40;;;19.50;96.50;;;;;;6224590;28;20243;-60
2021/06/05 04:08:39;;;;;;;10.30;9.47;;;19.50;96.40;;;;;;6224306;28;20582;-60
2021/06/05 04:11:42;;;;;;;10.30;9.50;;;19.50;96.40;;;;;;6224637;28;20336;-59
2021/06/05 04:14:45;;;;;;;9.70;8.87;;;19.50;96.40;;;;;;6224592;28;20279;-59
2021/06/05 04:17:49;;;;;;;10.73;9.73;;;19.60;96.30;;;;;;6224598;28;20706;-59
2021/06/05 04:20:52;;;;;;;9.93;9.03;;;19.60;96.30;;;;;;6224408;28;20209;-59
2021/06/05 04:23:55;;;;;;;9.30;8.70;;;19.70;96.30;;;;;;6224513;28;20259;-59
2021/06/05 04:26:57;;;;;;;10.43;9.53;;;19.70;96.30;;;;;;6224481;28;20244;-60
2021/06/05 04:30:00;;;;;;;10.80;9.90;;;19.70;96.30;;;;;;6226263;28;20224;-59
2021/06/05 04:33:05;;;;;;;10.40;9.57;;;19.80;96.20;;;;;;6229013;28;20659;-59
2021/06/05 04:36:11;;;;;;;10.00;9.20;;;19.80;96.20;;;;;;6229187;28;20233;-60
2021/06/05 04:39:14;;;;;;;10.83;9.97;;;19.80;96.10;;;;;;6228851;28;20706;-59
2021/06/05 04:42:17;;;;;;;10.67;9.87;;;19.90;96.10;;;;;;6228962;28;20237;-59
2021/06/05 04:45:21;;;;;;;11.57;10.40;;;20.00;96.10;;;;;;6229181;28;20240;-59
2021/06/05 04:48:25;;;;;;;11.23;10.27;;;20.00;96.00;;;;;;6229072;28;20228;-60
2021/06/05 04:51:29;;;;;;;10.90;9.90;;;20.00;95.80;;;;;;6228800;28;20244;-60
2021/06/05 04:54:32;;;;;;;11.20;10.30;;;20.10;96.00;;;;;;6228866;28;20243;-59
2021/06/05 04:57:35;;;;;;;13.50;9.97;;;20.10;96.00;;;;;;6228438;28;20225;-60
2021/06/05 05:00:40;;;;;;;12.20;11.10;;;20.30;96.00;;;;;;6228058;28;20702;-59
2021/06/05 05:03:45;;;;;;;11.83;10.80;;;20.30;95.90;;;;;;6228189;28;20229;-59
2021/06/05 05:06:47;;;;;;;10.83;10.03;;;20.30;95.90;;;;;;6228075;28;20417;-59
2021/06/05 05:09:50;;;;;;;12.13;11.03;;;20.50;95.90;;;;;;6228263;28;20225;-59
2021/06/05 05:12:53;;;;;;;10.53;9.50;;;20.60;95.70;;;;;;6228061;28;20737;-59
2021/06/05 05:15:58;;;;;;;11.00;10.10;;;20.60;95.40;;;;;;6228171;28;20236;-59
2021/06/05 05:19:02;;;;;;;11.63;10.83;;;20.80;95.40;;;;;;6227930;28;20232;-59
2021/06/05 05:22:06;;;;;;;10.97;10.07;;;20.80;95.30;;;;;;6228175;28;20248;-59
2021/06/05 05:25:10;;;;;;;12.43;11.40;;;20.90;95.30;;;;;;6228004;28;20717;-59
2021/06/05 05:28:16;;;;;;;11.03;10.20;;;20.90;95.20;;;;;;6227927;28;20659;-59
2021/06/05 05:31:22;;;;;;;11.07;10.10;;;21.00;95.20;;;;;;6228177;28;20232;-59
2021/06/05 05:34:26;;;;;;;10.87;10.17;;;21.10;95.10;;;;;;6227728;28;20233;-59
2021/06/05 05:37:29;;;;;;;11.77;10.77;;;21.20;95.00;;;;;;6227785;28;20225;-59
2021/06/05 05:40:34;;;;;;;12.53;10.63;;;21.30;94.90;;;;;;6226940;28;20232;-59
2021/06/05 05:43:37;;;;;;;10.70;9.87;;;21.50;94.80;;;;;;6227444;28;20235;-60
2021/06/05 05:46:40;;;;;;;11.33;10.40;;;21.60;94.60;;;;;;6227283;28;20233;-59
2021/06/05 05:49:44;;;;;;;11.80;10.90;;;21.70;94.40;;;;;;6218482;28;20298;-59
2021/06/05 05:52:47;;;;;;;10.10;9.30;;;21.80;94.20;;;;;;6227131;28;20247;-59
2021/06/05 05:55:50;;;;;;;10.87;10.07;;;21.90;94.00;;;;;;6227090;28;20228;-59
2021/06/05 05:58:54;;;;;;;11.63;10.53;;;22.00;94.00;;;;;;6226960;28;20233;-59
2021/06/05 06:01:57;;;;;;;12.83;11.80;;;22.00;93.90;;;;;;6226854;28;20696;-60
2021/06/05 06:05:01;;;;;;;11.37;10.20;;;22.00;93.90;;;;;;6226520;28;20777;-60
2021/06/05 06:08:05;;;;;;;11.70;10.70;;;22.10;93.80;;;;;;6226578;28;20600;-59
2021/06/05 06:11:09;;;;;;;12.33;11.43;;;22.20;93.60;;;;;;6226775;28;20468;-60
2021/06/05 06:14:12;;;;;;;12.97;11.77;;;22.20;93.60;;;;;;6226628;28;20343;-63
2021/06/05 06:17:15;;;;;;;12.90;11.60;;;22.30;93.20;;;;;;6226873;28;20229;-59
2021/06/05 06:20:23;;;;;;;12.40;11.40;;;22.10;92.60;;;;;;6226609;28;20243;-59
2021/06/05 06:23:30;;;;;;;12.80;11.60;;;22.00;92.60;;;;;;6226731;28;20233;-59
2021/06/05 06:26:32;;;;;;;11.13;10.23;;;22.10;92.50;;;;;;6226378;28;20251;-60
2021/06/05 06:29:36;;;;;;;11.50;10.60;;;22.10;92.60;;;;;;6226202;28;20291;-59
2021/06/05 06:32:38;;;;;;;13.40;12.10;;;22.20;92.40;;;;;;6226242;28;20247;-60
2021/06/05 06:35:43;;;;;;;12.70;11.57;;;22.40;92.40;;;;;;6226151;28;20221;-60
2021/06/05 06:38:48;;;;;;;11.77;10.67;;;22.50;92.50;;;;;;6226073;28;20204;-60
2021/06/05 06:41:51;;;;;;;11.63;10.77;;;22.60;92.40;;;;;;6226033;28;20209;-60
2021/06/05 06:44:54;;;;;;;11.63;10.50;;;22.70;92.30;;;;;;6226963;28;20225;-60
2021/06/05 06:47:57;;;;;;;11.83;10.93;;;22.80;92.10;;;;;;6246407;28;20200;-60
2021/06/05 06:51:02;;;;;;;11.33;10.40;;;22.80;91.70;;;;;;6250284;28;20227;-61
2021/06/05 06:54:06;;;;;;;10.90;10.10;;;22.90;91.30;;;;;;6249321;28;20228;-60
2021/06/05 06:57:09;;;;;;;11.70;10.63;;;23.00;91.10;;;;;;6250403;28;20235;-60
2021/06/05 07:00:15;;;;;;;12.67;11.67;;;23.50;90.70;;;;;;6235688;28;20232;-60
2021/06/05 07:03:18;;;;;;;11.70;10.67;;;24.40;89.70;;;;;;6242009;28;20228;-60
2021/06/05 07:06:25;;;;;;;11.10;10.20;;;25.30;85.40;;;;;;6235748;28;20247;-59
2021/06/05 07:09:29;;;;;;;11.10;10.23;;;25.80;83.40;;;;;;6225876;28;20239;-60
2021/06/05 07:12:32;;;;;;;13.33;12.13;;;26.10;80.80;;;;;;6225743;28;20232;-65
2021/06/05 07:15:35;;;;;;;12.53;11.33;;;26.50;79.50;;;;;;6225261;28;20239;-63
2021/06/05 07:18:38;;;;;;;12.97;11.97;;;26.50;77.20;;;;;;6225429;28;20275;-61
2021/06/05 07:21:43;;;;;;;12.47;11.47;;;26.60;76.50;;;;;;6225431;28;20235;-61
2021/06/05 07:24:45;;;;;;;13.50;12.30;;;26.70;75.80;;;;;;6225247;28;20228;-59
2021/06/05 07:27:48;;;;;;;12.00;11.20;;;26.60;75.60;;;;;;6225108;28;20228;-59
2021/06/05 07:30:52;;;;;;;12.17;11.27;;;26.60;75.20;;;;;;6224945;28;20724;-58
2021/06/05 07:33:55;;;;;;;12.37;11.27;;;26.40;74.60;;;;;;6224953;28;20233;-64
2021/06/05 07:37:03;;;;;;;11.57;10.47;;;26.50;75.20;;;;;;6225284;28;20228;-64
2021/06/05 07:40:08;;;;;;;12.60;11.43;;;26.70;74.80;;;;;;6225154;28;20259;-64
2021/06/05 07:43:12;;;;;;;11.83;10.90;;;27.00;73.80;;;;;;6224905;28;20232;-65
2021/06/05 07:46:16;;;;;;;13.03;12.03;;;27.00;72.20;;;;;;6224786;28;20700;-64
2021/06/05 07:49:19;;;;;;;11.83;10.93;;;26.90;71.60;;;;;;6225161;28;20240;-60
2021/06/05 07:52:24;;;;;;;12.00;11.10;;;26.90;71.90;;;;;;6231895;28;20226;-63
2021/06/05 07:55:27;;;;;;;10.90;10.10;;;26.80;71.60;;;;;;6249353;28;20223;-64
2021/06/05 07:58:30;;;;;;;12.30;11.40;;;27.00;72.00;;;;;;6239853;28;20326;-63
2021/06/05 08:01:33;;;;;;;12.67;11.80;;;27.20;71.70;;;;;;6246863;28;20239;-62
2021/06/05 08:04:36;;;;;;;12.70;11.73;;;27.40;70.70;;;;;;6249434;28;20547;-63
2021/06/05 08:07:40;;;;;;;12.63;11.70;;;27.40;70.70;;;;;;6252199;28;20230;-59
2021/06/05 08:10:43;;;;;;;13.70;12.60;;;27.70;69.70;;;;;;6251430;28;20238;-63
2021/06/05 08:13:46;;;;;;;12.13;11.13;;;28.20;68.20;;;;;;6252198;28;20223;-63
2021/06/05 08:16:49;;;;;;;12.93;12.13;;;28.60;66.10;;;;;;6253469;28;20223;-64
2021/06/05 08:19:52;;;;;;;11.10;10.30;;;28.60;65.00;;;;;;6254207;28;20238;-63
2021/06/05 08:22:57;;;;;;;12.20;11.30;;;28.80;65.10;;;;;;6253872;28;20240;-63
2021/06/05 08:26:00;;;;;;;12.40;11.40;;;28.80;64.70;;;;;;6253901;28;20569;-63
2021/06/05 08:29:03;;;;;;;12.40;11.40;;;28.80;65.00;;;;;;6253802;28;20231;-63
2021/06/05 08:32:07;;;;;;;13.03;12.03;;;28.90;64.10;;;;;;6253673;28;20350;-63
2021/06/05 08:35:10;;;;;;;15.40;14.10;;;29.00;64.00;;;;;;6253275;28;20227;-62
2021/06/05 08:38:18;;;;;;;12.70;11.70;;;28.80;63.70;;;;;;6251903;28;20679;-63
2021/06/05 08:41:36;;;;;;;15.47;14.10;;;29.00;64.10;;;;;;6249852;28;20231;-64
2021/06/05 08:44:41;;;;;;;14.33;13.17;;;29.20;63.20;;;;;;6249767;28;20227;-63
2021/06/05 08:47:44;;;;;;;14.90;13.60;;;29.40;62.40;;;;;;6249379;28;20233;-62
2021/06/05 08:50:47;;;;;;;13.67;12.67;;;29.30;62.20;;;;;;6250225;28;20223;-64
2021/06/05 08:53:54;;;;;;;14.67;13.57;;;29.10;62.70;;;;;;6251630;28;20215;-64
2021/06/05 08:57:01;;;;;;;13.60;12.60;;;28.90;63.10;;;;;;6253683;28;20195;-64
2021/06/05 09:00:11;;;;;;;16.13;14.60;;;28.70;64.30;;;;;;6248256;28;20250;-64
2021/06/05 09:03:21;;;;;;;14.17;12.93;;;28.60;64.50;;;;;;6253078;28;20245;-63
2021/06/05 09:06:32;;;;;;;13.70;12.60;;;28.50;65.20;;;;;;6251620;28;20314;-63
2021/06/05 09:09:40;;;;;;;13.87;12.60;;;28.40;65.40;;;;;;6253242;28;20232;-64
2021/06/05 09:12:43;;;;;;;12.93;11.90;;;28.30;65.90;;;;;;6252955;28;20231;-64
2021/06/05 09:15:46;;;;;;;14.23;13.10;;;28.20;65.80;;;;;;6252014;28;20227;-63
2021/06/05 09:18:51;;;;;;;14.00;13.00;;;28.10;65.80;;;;;;6252533;28;20238;-62
2021/06/05 09:22:12;;;;;;;14.00;12.90;;;28.20;67.00;;;;;;6252686;28;20258;-63
2021/06/05 09:25:27;;;;;;;13.53;12.43;;;27.90;66.30;;;;;;6252264;28;21204;-62
2021/06/05 09:28:33;;;;;;;12.47;11.47;;;28.00;66.70;;;;;;6252596;28;20309;-63
2021/06/05 09:31:51;;;;;;;12.83;11.93;;;28.20;66.50;;;;;;6252266;28;20240;-62
2021/06/05 09:34:56;;;;;;;13.03;11.83;;;28.40;66.40;;;;;;6252404;28;20282;-62
2021/06/05 09:38:15;;;;;;;12.27;11.27;;;28.30;65.40;;;;;;6252316;28;20223;-63
2021/06/05 09:41:24;;;;;;;12.73;11.73;;;28.10;65.60;;;;;;6252339;28;20242;-63
2021/06/05 09:44:30;;;;;;;12.73;11.63;;;28.20;66.10;;;;;;6251732;28;20243;-65
2021/06/05 09:47:33;;;;;;;11.80;11.00;;;28.30;66.50;;;;;;6252003;28;20728;-66
2021/06/05 09:50:42;;;;;;;12.37;11.23;;;28.40;65.80;;;;;;6251502;28;20237;-63
2021/06/05 09:53:45;;;;;;;13.57;12.17;;;28.60;65.40;;;;;;6251971;28;20244;-65
2021/06/05 09:56:49;;;;;;;12.23;11.17;;;28.70;64.90;;;;;;6251557;28;20223;-66
2021/06/05 10:00:06;;;;;;;13.23;12.17;;;28.80;64.30;;;;;;6251598;28;20246;-64
2021/06/05 10:03:31;;;;;;;13.27;12.27;;;28.90;63.80;;;;;;6251547;28;20240;-64
2021/06/05 10:06:37;;;;;;;13.10;12.10;;;28.90;62.40;;;;;;6247262;28;20242;-66
2021/06/05 10:09:42;;;;;;;12.37;11.27;;;28.80;63.10;;;;;;6251379;28;20242;-66
2021/06/05 10:12:49;;;;;;;11.80;11.00;;;28.90;63.20;;;;;;6252004;28;20560;-64
2021/06/05 10:15:54;;;;;;;11.37;10.63;;;29.00;62.90;;;;;;6251498;28;20322;-64
2021/06/05 10:19:02;;;;;;;12.60;11.70;;;29.10;62.80;;;;;;6251494;28;20297;-64
2021/06/05 10:22:06;;;;;;;12.67;11.77;;;29.10;62.60;;;;;;6251396;28;20227;-64
2021/06/05 10:25:19;;;;;;;13.53;12.43;;;29.20;62.70;;;;;;6251386;28;20235;-65
2021/06/05 10:28:27;;;;;;;12.10;11.10;;;29.10;61.20;;;;;;6250155;28;20223;-65
2021/06/05 10:31:32;;;;;;;11.93;11.00;;;29.00;60.60;;;;;;6251171;28;20239;-64
2021/06/05 10:34:40;;;;;;;9.87;9.27;;;29.00;60.50;;;;;;6250905;28;20685;-65
2021/06/05 10:37:43;;;;;;;10.77;10.00;;;28.70;59.20;;;;;;6250935;28;20223;-64
2021/06/05 10:40:47;;;;;;;9.60;9.00;;;28.80;60.40;;;;;;6251057;28;20223;-64
2021/06/05 10:43:52;;;;;;;11.17;10.30;;;29.00;59.50;;;;;;6250849;28;20665;-64
2021/06/05 10:47:00;;;;;;;10.77;10.07;;;28.90;60.50;;;;;;6250766;28;20238;-64
2021/06/05 10:50:10;;;;;;;10.33;9.60;;;29.00;60.60;;;;;;6250712;28;20231;-64
2021/06/05 10:53:23;;;;;;;10.27;9.67;;;29.10;59.70;;;;;;6250372;28;20227;-65
2021/06/05 10:56:35;;;;;;;10.40;9.70;;;29.10;58.60;;;;;;6250521;28;20227;-64
2021/06/05 10:59:45;;;;;;;9.87;9.17;;;29.20;59.10;;;;;;6249760;28;20681;-64
2021/06/05 11:02:51;;;;;;;10.27;9.57;;;29.20;59.60;;;;;;6250401;28;20211;-64
2021/06/05 11:06:00;;;;;;;11.53;9.60;;;29.30;58.90;;;;;;6249422;28;20239;-64
2021/06/05 11:09:48;;;;;;;11.40;10.27;;;29.00;59.00;;;;;;6241600;28;20200;-64
2021/06/05 11:12:53;;;;;;;10.63;9.93;;;29.00;59.40;;;;;;6250351;28;20242;-64
2021/06/05 11:15:58;;;;;;;10.20;9.30;;;29.30;59.20;;;;;;6249850;28;20236;-64
2021/06/05 11:19:32;;;;;;;9.90;9.20;;;29.40;59.10;;;;;;6249703;28;20227;-64
2021/06/05 11:23:03;;;;;;;9.77;9.00;;;29.30;59.60;;;;;;6249526;28;20246;-64
2021/06/05 11:26:41;;;;;;;9.40;8.80;;;29.40;58.90;;;;;;6249573;28;20227;-64
2021/06/05 11:29:58;;;;;;;9.47;8.67;;;29.50;59.20;;;;;;6249881;28;20227;-64
2021/06/05 11:33:05;;;;;;;9.07;8.33;;;29.70;58.30;;;;;;6249610;28;20289;-65
2021/06/05 11:36:40;;;;;;;10.20;9.40;;;30.00;58.40;;;;;;6249916;28;20227;-63
2021/06/05 11:39:50;;;;;;;9.80;9.00;;;30.10;58.20;;;;;;6244830;28;20232;-64
2021/06/05 11:42:56;;;;;;;10.47;9.47;;;30.30;57.40;;;;;;6249948;28;20696;-64
2021/06/05 11:46:04;;;;;;;10.73;9.97;;;30.30;58.10;;;;;;6249143;28;20566;-64
2021/06/05 11:49:07;;;;;;;10.13;9.30;;;30.40;58.40;;;;;;6249681;28;20232;-63
2021/06/05 11:52:37;;;;;;;10.23;9.53;;;30.40;58.60;;;;;;6249329;28;20227;-63
2021/06/05 11:55:44;;;;;;;11.00;10.30;;;30.50;58.30;;;;;;6249504;28;20231;-63
2021/06/05 11:58:49;;;;;;;10.30;9.30;;;30.50;58.00;;;;;;6249621;28;20313;-63
2021/06/05 12:01:52;;;;;;;10.43;9.82;;;30.40;57.60;;;;;;6248610;28;20235;-63
2021/06/05 12:04:57;;;;;;;9.18;8.57;;;30.60;58.50;;;;;;6249305;28;20231;-63
2021/06/05 12:08:16;;;;;;;9.07;8.27;;;30.70;55.60;;;;;;6248731;28;20231;-63
2021/06/05 12:11:23;;;;;;;8.55;7.95;;;30.80;54.40;;;;;;6249247;28;20316;-62
2021/06/05 12:14:39;;;;;;;7.95;7.45;;;30.80;54.80;;;;;;6244420;28;20235;-64
2021/06/05 12:17:43;;;;;;;7.55;7.05;;;30.90;54.10;;;;;;6249098;28;20605;-64
2021/06/05 12:20:49;;;;;;;8.60;7.90;;;30.80;53.70;;;;;;6248764;28;20220;-64
2021/06/05 12:23:52;;;;;;;8.75;8.15;;;30.60;53.10;;;;;;6249354;28;20290;-64
2021/06/05 12:26:58;;;;;;;9.00;8.40;;;30.80;54.50;;;;;;6248724;28;20223;-64
2021/06/05 12:30:15;;;;;;;9.85;9.15;;;30.90;53.60;;;;;;6249411;28;20188;-64
2021/06/05 12:33:27;;;;;;;8.80;8.20;;;31.10;54.30;;;;;;6248860;28;20238;-64
2021/06/05 12:36:33;;;;;;;8.50;7.90;;;31.30;52.70;;;;;;6249183;28;20232;-64
2021/06/05 12:39:45;;;;;;;9.57;8.65;;;31.30;51.40;;;;;;6249107;28;20223;-64
2021/06/05 12:42:48;;;;;;;9.43;8.73;;;31.20;52.50;;;;;;6249162;28;20228;-64
2021/06/05 12:45:58;;;;;;;9.77;9.18;;;31.20;53.50;;;;;;6248666;28;20228;-64
2021/06/05 12:49:04;;;;;;;9.02;8.52;;;31.10;53.00;;;;;;6248888;28;20660;-63
2021/06/05 12:52:14;;;;;;;9.38;8.77;;;31.20;53.20;;;;;;6252105;28;20227;-64
2021/06/05 12:55:28;;;;;;;7.95;7.45;;;31.20;52.10;;;;;;6252648;28;20238;-63
2021/06/05 12:58:35;;;;;;;7.82;7.13;;;31.10;50.60;;;;;;6252895;28;20246;-63
2021/06/05 13:01:43;;;;;;;7.22;6.72;;;30.60;48.10;;;;;;6252440;28;20238;-67
2021/06/05 13:04:46;;;;;;;7.45;6.75;;;30.50;49.10;;;;;;6252151;28;20362;-63
2021/06/05 13:07:51;;;;;;;7.82;7.30;;;30.60;48.80;;;;;;6253175;28;20235;-63
2021/06/05 13:10:55;;;;;;;8.30;7.70;;;30.50;51.20;;;;;;6252916;28;20235;-63
2021/06/05 13:14:19;;;;;;;9.27;8.68;;;30.60;51.70;;;;;;6246016;28;20228;-63
2021/06/05 13:17:32;;;;;;;9.68;9.00;;;30.70;51.20;;;;;;6232552;28;20221;-63
2021/06/05 13:20:42;;;;;;;9.10;8.30;;;30.50;53.10;;;;;;6233731;28;20228;-63
2021/06/05 13:23:51;;;;;;;10.93;9.82;;;30.70;53.60;;;;;;6240010;28;20306;-64
2021/06/05 13:27:13;;;;;;;9.90;9.30;;;30.60;54.10;;;;;;6242925;28;20215;-63
2021/06/05 13:30:20;;;;;;;9.93;9.30;;;30.50;54.70;;;;;;6240709;28;20243;-63
2021/06/05 13:33:35;;;;;;;9.98;9.05;;;30.50;54.80;;;;;;6246318;28;20247;-63
2021/06/05 13:36:40;;;;;;;8.63;8.10;;;30.50;54.60;;;;;;6251910;28;20261;-63
2021/06/05 13:39:43;;;;;;;9.03;8.43;;;30.50;53.00;;;;;;6251987;28;20697;-63
2021/06/05 13:42:48;;;;;;;8.50;7.90;;;30.30;52.30;;;;;;6251966;28;20254;-64
2021/06/05 13:45:51;;;;;;;6.97;6.57;;;30.30;51.50;;;;;;6252456;28;20232;-64
2021/06/05 13:48:55;;;;;;;7.47;6.73;;;30.10;50.20;;;;;;6252081;28;20246;-64
2021/06/05 13:51:58;;;;;;;8.80;8.20;;;30.10;51.80;;;;;;6251933;28;20231;-64
2021/06/05 13:55:04;;;;;;;8.10;7.60;;;30.10;53.00;;;;;;6251811;28;20239;-65
2021/06/05 13:58:09;;;;;;;9.47;8.67;;;30.20;52.30;;;;;;6252527;28;20242;-65
2021/06/05 14:01:16;;;;;;;8.43;7.73;;;30.20;52.50;;;;;;6251511;28;20338;-63
2021/06/05 14:04:21;;;;;;;9.13;8.37;;;30.20;52.30;;;;;;6251771;28;20231;-65
2021/06/05 14:07:24;;;;;;;9.20;8.60;;;29.80;53.20;;;;;;6249708;28;20228;-64
2021/06/05 14:10:27;;;;;;;8.90;8.30;;;29.60;54.00;;;;;;6235173;28;20232;-63
2021/06/05 14:13:30;;;;;;;8.07;7.57;;;29.70;54.00;;;;;;6242041;28;20234;-63
2021/06/05 14:16:33;;;;;;;9.27;8.50;;;29.80;53.50;;;;;;6235475;28;20243;-63
2021/06/05 14:19:38;;;;;;;8.27;7.47;;;30.00;52.50;;;;;;6241108;28;20354;-64
2021/06/05 14:22:40;;;;;;;7.93;7.43;;;30.00;52.10;;;;;;6250886;28;20250;-65
2021/06/05 14:25:45;;;;;;;7.77;7.17;;;29.90;51.10;;;;;;6250744;28;20239;-62
2021/06/05 14:28:48;;;;;;;9.20;8.50;;;29.90;51.90;;;;;;6250903;28;20716;-62
2021/06/05 14:31:51;;;;;;;7.97;7.27;;;30.00;52.10;;;;;;6250865;28;20227;-65
2021/06/05 14:34:55;;;;;;;17.87;9.90;;;29.70;52.40;;;;;;6250776;28;20321;-65
2021/06/05 14:37:58;;;;;;;8.93;8.33;;;29.80;55.30;;;;;;6250745;28;20235;-64
2021/06/05 14:41:03;;;;;;;9.03;8.33;;;29.80;56.80;;;;;;6250699;28;20238;-64
2021/06/05 14:44:06;;;;;;;8.90;8.30;;;29.60;57.70;;;;;;6250698;28;20246;-65
2021/06/05 14:47:08;;;;;;;8.80;8.27;;;29.20;58.80;;;;;;6250381;28;20253;-65
2021/06/05 14:50:16;;;;;;;9.60;9.00;;;29.00;59.80;;;;;;6250593;28;20231;-65
2021/06/05 14:53:22;;;;;;;9.63;8.73;;;28.70;60.50;;;;;;6250014;28;20227;-63
2021/06/05 14:56:25;;;;;;;8.50;7.80;;;28.50;61.50;;;;;;6249414;28;20685;-62
2021/06/05 14:59:28;;;;;;;10.77;9.80;;;28.20;62.60;;;;;;6250290;28;20260;-61
2021/06/05 15:02:31;;;;;;;9.20;8.60;;;28.00;63.70;;;;;;6250181;28;20246;-62
2021/06/05 15:05:37;;;;;;;9.43;8.73;;;27.90;64.30;;;;;;6250135;28;20249;-62
2021/06/05 15:08:40;;;;;;;9.13;8.23;;;27.60;62.90;;;;;;6249989;28;20239;-63
2021/06/05 15:11:43;;;;;;;17.90;12.60;;;27.10;68.40;;;;;;6247624;28;20873;-63
2021/06/05 15:14:45;;;;;;;13.10;12.00;;;26.50;81.00;;;;;;6247664;28;20227;-62
2021/06/05 15:17:49;;;;;;;10.20;9.40;;;24.80;88.00;;;;;;6248920;28;20204;-62
2021/06/05 15:20:53;;;;;;;11.57;10.57;;;23.40;90.20;;;;;;6244471;28;20215;-62
2021/06/05 15:23:56;;;;;;;14.50;13.30;;;22.40;97.90;;;;;;6248909;28;20220;-62
2021/06/05 15:26:59;;;;;;;17.67;16.17;;;21.90;99.90;;;;;;6249794;28;20228;-62
2021/06/05 15:30:02;;;;;;;15.60;14.30;;;21.50;99.90;;;;;;6249518;28;20215;-62
2021/06/05 15:33:06;;;;;;;15.13;13.80;;;21.40;99.90;;;;;;6250014;28;20311;-64
2021/06/05 15:36:12;;;;;;;14.50;13.30;;;21.40;99.90;;;;;;6249274;28;20236;-64
2021/06/05 15:39:15;;;;;;;15.30;14.00;;;21.70;99.90;;;;;;6249951;28;20243;-65
2021/06/05 15:42:18;;;;;;;16.23;14.93;;;22.00;99.90;;;;;;6249419;28;20228;-64
2021/06/05 15:45:24;;;;;;;16.77;15.17;;;22.40;99.90;;;;;;6249078;28;20232;-63
2021/06/05 15:48:29;;;;;;;16.40;15.07;;;22.80;99.90;;;;;;6249391;28;20678;-64
2021/06/05 15:51:38;;;;;;;16.43;14.83;;;23.10;99.90;;;;;;6249533;28;20228;-64
2021/06/05 15:54:41;;;;;;;14.90;13.60;;;23.40;99.90;;;;;;6249529;28;20232;-64
2021/06/05 15:57:44;;;;;;;15.07;13.83;;;23.70;99.90;;;;;;6249384;28;20751;-64